Terminal Aerodrome Forecast
Issued by NWS

Home | Current Version | Previous Version | Text Only | Print | Product List | Glossary On
Versions: 1 2 3 4 5 6 7 8 9 10 11 12 13 14 15 16 17 18 19 20 21 22 23 24 25 26 27 28 29 30 31 32 33 34 35 36 37 38 39 40 41 42 43 44
000
FTUS41 KBOX 271120
TAFFMH
TAF
KFMH 271120Z 2712/2812 12010G18KT 4SM BR VCSH OVC015
     FM271700 15011G21KT 2SM -RA BR OVC008
     FM271900 17009KT 3/4SM -RA BR OVC003
     FM280000 24006KT 3SM BR OVC010
     FM280500 30004KT 1SM BR OVC010=

USA.gov is the U.S. government's official web portal to all federal, state and local government web resources and services.